Time;durP1;ratioP1;P1;durP2;ratioP2;P2;SDS_P1;SDS_P2;PMS_P1;PMS_P2;Temp;Humidity;BMP_temperature;BMP_pressure;BME280_temperature;BME280_humidity;BME280_pressure;Samples;Min_cycle;Max_cycle;Signal;HPM_P1;HPM_P2
2021/11/28 00:00:42;;;;;;;17.42;11.10;;;;;;;;;;4952514;28;20106;-68
2021/11/28 00:03:09;;;;;;;15.80;10.20;;;;;;;;;;4952734;28;20506;-68
2021/11/28 00:05:36;;;;;;;16.08;10.38;;;;;;;;;;4956966;28;20051;-67
2021/11/28 00:08:16;;;;;;;18.48;10.35;;;;;;;;;;4965401;28;20084;-67
2021/11/28 00:10:55;;;;;;;17.75;10.80;;;;;;;;;;4975981;28;20573;-67
2021/11/28 00:15:59;;;;;;;17.35;11.25;;;;;;;;;;4976284;28;20050;-68
2021/11/28 00:18:28;;;;;;;17.67;10.57;;;;;;;;;;4976151;28;20058;-68
2021/11/28 00:20:55;;;;;;;15.75;11.02;;;;;;;;;;4976025;28;20494;-68
2021/11/28 00:23:21;;;;;;;17.23;11.75;;;;;;;;;;4975930;28;20058;-68
2021/11/28 00:25:48;;;;;;;17.77;11.35;;;;;;;;;;4969122;28;20075;-68
2021/11/28 00:28:16;;;;;;;15.88;10.73;;;;;;;;;;4955446;28;20055;-67
2021/11/28 00:30:43;;;;;;;14.15;10.07;;;;;;;;;;4956445;28;20110;-68
2021/11/28 00:33:09;;;;;;;15.77;9.90;;;;;;;;;;4956390;28;20578;-68
2021/11/28 00:35:36;;;;;;;15.15;9.65;;;;;;;;;;4960522;28;20046;-67
2021/11/28 00:38:03;;;;;;;18.45;10.73;;;;;;;;;;4975736;28;20054;-68
2021/11/28 00:40:29;;;;;;;14.52;9.68;;;;;;;;;;4975653;28;20051;-67
2021/11/28 00:42:56;;;;;;;15.88;9.70;;;;;;;;;;4975535;28;20474;-68
2021/11/28 00:45:23;;;;;;;17.13;10.68;;;;;;;;;;4972805;28;20106;-67
2021/11/28 00:47:50;;;;;;;15.50;9.40;;;;;;;;;;4956016;28;20074;-67
2021/11/28 00:52:44;;;;;;;15.55;10.23;;;;;;;;;;4956065;29;20454;-67
2021/11/28 00:55:11;;;;;;;13.05;8.60;;;;;;;;;;4956260;28;20055;-67
2021/11/28 00:57:37;;;;;;;14.93;9.60;;;;;;;;;;4956015;28;20510;-67
2021/11/28 01:00:06;;;;;;;15.93;10.20;;;;;;;;;;4956459;29;20059;-67
2021/11/28 01:02:33;;;;;;;14.20;9.13;;;;;;;;;;4955927;28;20047;-67
2021/11/28 01:05:00;;;;;;;14.25;8.35;;;;;;;;;;4955142;29;20110;-67
2021/11/28 01:07:26;;;;;;;13.50;9.32;;;;;;;;;;4956272;28;20043;-67
2021/11/28 01:09:54;;;;;;;14.30;9.43;;;;;;;;;;4956027;28;20055;-67
2021/11/28 01:12:21;;;;;;;13.32;9.20;;;;;;;;;;4955829;28;20498;-68
2021/11/28 01:14:49;;;;;;;12.68;8.50;;;;;;;;;;4955039;28;20110;-68
2021/11/28 01:17:17;;;;;;;15.27;8.68;;;;;;;;;;4955915;28;20058;-68
2021/11/28 01:19:43;;;;;;;15.57;9.60;;;;;;;;;;4955602;28;20573;-68
2021/11/28 01:22:11;;;;;;;13.20;8.80;;;;;;;;;;4955691;28;20055;-68
2021/11/28 01:24:39;;;;;;;14.52;9.43;;;;;;;;;;4955357;28;20051;-68
2021/11/28 01:27:08;;;;;;;14.38;9.23;;;;;;;;;;4954377;29;20047;-68
2021/11/28 01:29:34;;;;;;;14.25;9.07;;;;;;;;;;4955247;28;20573;-68
2021/11/28 01:32:02;;;;;;;13.82;8.50;;;;;;;;;;4956709;28;20047;-68
2021/11/28 01:34:29;;;;;;;15.25;9.35;;;;;;;;;;4989311;28;20569;-68
2021/11/28 01:36:56;;;;;;;14.68;9.48;;;;;;;;;;4974648;28;20493;-67
2021/11/28 01:39:23;;;;;;;15.23;9.52;;;;;;;;;;4974552;28;20462;-67
2021/11/28 01:41:49;;;;;;;15.40;10.25;;;;;;;;;;4974551;28;20494;-67
2021/11/28 01:44:16;;;;;;;14.95;8.85;;;;;;;;;;4955388;28;20102;-67
2021/11/28 01:46:43;;;;;;;16.23;9.27;;;;;;;;;;4955014;29;20047;-67
2021/11/28 01:49:10;;;;;;;15.10;8.35;;;;;;;;;;4955069;28;20047;-67
2021/11/28 01:51:38;;;;;;;14.45;8.90;;;;;;;;;;4955036;28;20051;-67
2021/11/28 01:54:10;;;;;;;16.88;9.45;;;;;;;;;;4955129;28;20051;-67
2021/11/28 01:56:38;;;;;;;12.18;7.85;;;;;;;;;;4954982;28;20047;-67
2021/11/28 01:59:05;;;;;;;10.93;7.68;;;;;;;;;;4954784;28;20114;-67
2021/11/28 02:01:33;;;;;;;15.07;9.07;;;;;;;;;;4954868;28;20051;-67
2021/11/28 02:04:01;;;;;;;12.00;8.05;;;;;;;;;;4965459;28;20105;-67
2021/11/28 02:06:28;;;;;;;13.75;8.00;;;;;;;;;;4973983;28;20057;-67
2021/11/28 02:08:55;;;;;;;13.32;8.25;;;;;;;;;;4973979;28;20059;-67
2021/11/28 02:11:22;;;;;;;13.45;7.47;;;;;;;;;;4974066;28;20050;-67
2021/11/28 02:13:49;;;;;;;12.88;7.75;;;;;;;;;;4960329;28;20122;-67
2021/11/28 02:16:15;;;;;;;9.07;6.10;;;;;;;;;;4954712;29;20121;-67
2021/11/28 02:18:42;;;;;;;10.07;6.93;;;;;;;;;;4954422;28;20082;-67
2021/11/28 02:21:10;;;;;;;10.85;7.65;;;;;;;;;;4954716;28;20059;-67
2021/11/28 02:23:37;;;;;;;14.02;7.47;;;;;;;;;;4954309;28;20106;-67
2021/11/28 02:26:10;;;;;;;13.00;7.53;;;;;;;;;;4954362;28;20051;-67
2021/11/28 02:28:41;;;;;;;11.50;7.63;;;;;;;;;;4954273;28;20122;-67
2021/11/28 02:31:08;;;;;;;14.13;8.15;;;;;;;;;;4954385;28;20051;-67
2021/11/28 02:33:35;;;;;;;11.30;7.45;;;;;;;;;;4963488;28;20050;-67
2021/11/28 02:36:02;;;;;;;13.82;8.68;;;;;;;;;;4973521;28;20054;-67
2021/11/28 02:38:29;;;;;;;13.43;8.48;;;;;;;;;;4973408;28;20050;-67
2021/11/28 02:40:56;;;;;;;14.18;6.95;;;;;;;;;;4973603;28;20054;-67
2021/11/28 02:43:25;;;;;;;13.32;7.05;;;;;;;;;;4973301;28;20106;-66
2021/11/28 02:45:52;;;;;;;13.13;8.48;;;;;;;;;;4973540;28;20114;-66
2021/11/28 02:48:18;;;;;;;11.80;8.07;;;;;;;;;;4973339;28;20458;-66
2021/11/28 02:50:46;;;;;;;14.05;7.80;;;;;;;;;;4973262;28;20101;-66
2021/11/28 02:53:13;;;;;;;11.88;8.40;;;;;;;;;;4973219;28;20054;-66
2021/11/28 02:55:43;;;;;;;11.40;7.47;;;;;;;;;;4973161;28;20548;-66
2021/11/28 02:58:10;;;;;;;12.73;8.20;;;;;;;;;;4973259;28;20047;-66
2021/11/28 03:00:39;;;;;;;11.82;7.82;;;;;;;;;;4973400;28;20106;-66
2021/11/28 03:03:06;;;;;;;14.27;7.03;;;;;;;;;;4968237;28;20498;-67
2021/11/28 03:05:33;;;;;;;12.05;7.45;;;;;;;;;;4953827;28;20051;-66
2021/11/28 03:08:00;;;;;;;14.30;7.75;;;;;;;;;;4952447;28;20098;-67
2021/11/28 03:10:41;;;;;;;10.25;7.53;;;;;;;;;;4953891;29;20059;-67
2021/11/28 03:13:17;;;;;;;11.20;7.47;;;;;;;;;;4958712;28;20497;-68
2021/11/28 03:15:44;;;;;;;11.27;7.15;;;;;;;;;;4972981;28;20512;-68
2021/11/28 03:18:16;;;;;;;13.07;7.60;;;;;;;;;;4973038;28;20129;-67
2021/11/28 03:20:43;;;;;;;13.50;7.30;;;;;;;;;;4973011;28;20466;-67
2021/11/28 03:23:12;;;;;;;10.27;7.20;;;;;;;;;;4967649;28;20643;-67
2021/11/28 03:25:38;;;;;;;8.95;6.63;;;;;;;;;;4953760;28;20057;-67
2021/11/28 03:28:05;;;;;;;12.77;7.72;;;;;;;;;;4964597;28;20078;-67
2021/11/28 03:30:32;;;;;;;16.25;7.95;;;;;;;;;;4972777;28;20051;-67
2021/11/28 03:32:58;;;;;;;14.32;8.77;;;;;;;;;;4972903;28;20051;-67
2021/11/28 03:35:25;;;;;;;13.18;8.30;;;;;;;;;;4971709;28;20497;-66
2021/11/28 03:37:51;;;;;;;12.82;8.93;;;;;;;;;;4954058;28;20043;-67
2021/11/28 03:40:18;;;;;;;12.93;8.30;;;;;;;;;;4957663;29;20083;-67
2021/11/28 03:42:44;;;;;;;13.63;8.52;;;;;;;;;;4957221;29;20462;-67
2021/11/28 03:45:13;;;;;;;14.88;9.48;;;;;;;;;;4957581;28;20055;-67
2021/11/28 03:47:40;;;;;;;13.15;8.23;;;;;;;;;;4957197;28;20094;-67
2021/11/28 03:50:07;;;;;;;14.18;8.65;;;;;;;;;;4957343;28;20104;-67
2021/11/28 03:52:34;;;;;;;12.68;7.88;;;;;;;;;;4957122;28;20055;-67
2021/11/28 03:55:01;;;;;;;13.60;8.20;;;;;;;;;;4957764;28;20051;-66
2021/11/28 03:57:28;;;;;;;12.52;8.10;;;;;;;;;;4956936;28;20104;-67
2021/11/28 03:59:54;;;;;;;12.23;7.78;;;;;;;;;;4957207;28;20055;-67
2021/11/28 04:02:21;;;;;;;14.65;8.43;;;;;;;;;;4957191;28;20051;-67
2021/11/28 04:04:48;;;;;;;12.40;8.02;;;;;;;;;;4956722;29;20061;-67
2021/11/28 04:07:14;;;;;;;11.77;8.88;;;;;;;;;;4956954;28;20052;-67
2021/11/28 04:09:41;;;;;;;14.75;9.35;;;;;;;;;;4956861;28;20051;-67
2021/11/28 04:12:08;;;;;;;15.40;9.23;;;;;;;;;;4965073;28;20054;-67
2021/11/28 04:14:35;;;;;;;14.73;9.15;;;;;;;;;;4969826;28;20567;-67
2021/11/28 04:17:02;;;;;;;14.23;9.80;;;;;;;;;;4956876;29;20102;-67
2021/11/28 04:19:29;;;;;;;12.18;7.85;;;;;;;;;;4956810;28;20128;-67
2021/11/28 04:21:55;;;;;;;12.27;8.57;;;;;;;;;;4973313;28;20081;-67
2021/11/28 04:24:22;;;;;;;12.02;8.65;;;;;;;;;;4975979;28;20055;-67
2021/11/28 04:26:49;;;;;;;12.23;9.25;;;;;;;;;;4975798;28;20050;-67
2021/11/28 04:29:17;;;;;;;11.20;8.63;;;;;;;;;;4976051;28;20183;-66
2021/11/28 04:31:46;;;;;;;11.10;8.07;;;;;;;;;;4975750;28;20522;-67
2021/11/28 04:34:15;;;;;;;13.57;9.15;;;;;;;;;;4975735;28;20047;-67
2021/11/28 04:36:42;;;;;;;11.77;8.75;;;;;;;;;;4975785;28;20131;-66
2021/11/28 04:39:09;;;;;;;12.38;8.65;;;;;;;;;;4975647;28;20047;-66
2021/11/28 04:41:36;;;;;;;15.65;8.88;;;;;;;;;;4975617;28;20179;-67
2021/11/28 04:44:03;;;;;;;13.25;9.38;;;;;;;;;;4975533;28;20055;-66
2021/11/28 04:46:30;;;;;;;13.25;8.75;;;;;;;;;;4975674;28;20445;-67
2021/11/28 04:48:57;;;;;;;13.93;8.70;;;;;;;;;;4975479;28;20051;-67
2021/11/28 04:51:23;;;;;;;12.75;8.80;;;;;;;;;;4975660;28;20093;-67
2021/11/28 04:53:50;;;;;;;13.25;8.68;;;;;;;;;;4975428;28;20536;-67
2021/11/28 04:56:16;;;;;;;12.45;8.48;;;;;;;;;;4977609;28;20097;-67
2021/11/28 04:58:43;;;;;;;13.38;9.07;;;;;;;;;;4975334;28;20043;-66
2021/11/28 05:01:09;;;;;;;12.43;8.50;;;;;;;;;;4975258;28;20051;-67
2021/11/28 05:03:36;;;;;;;12.38;8.45;;;;;;;;;;4975105;28;20497;-67
2021/11/28 05:06:03;;;;;;;12.20;8.15;;;;;;;;;;4975468;28;20101;-67
2021/11/28 05:08:30;;;;;;;13.60;8.80;;;;;;;;;;5011708;23;20050;-63
2021/11/28 05:10:56;;;;;;;11.00;7.97;;;;;;;;;;4994613;28;20093;-66
2021/11/28 05:13:23;;;;;;;11.95;8.13;;;;;;;;;;4994521;28;20570;-66
2021/11/28 05:15:50;;;;;;;12.13;8.60;;;;;;;;;;4994538;28;20440;-64
2021/11/28 05:18:16;;;;;;;13.52;8.23;;;;;;;;;;4994555;28;20413;-65
2021/11/28 05:20:46;;;;;;;12.57;8.27;;;;;;;;;;4994462;28;20054;-66
2021/11/28 05:23:13;;;;;;;14.02;7.50;;;;;;;;;;4994371;28;20104;-66
2021/11/28 05:25:40;;;;;;;14.55;8.35;;;;;;;;;;4993931;28;20050;-67
2021/11/28 05:28:08;;;;;;;13.70;7.70;;;;;;;;;;4994110;28;20047;-65
2021/11/28 05:30:35;;;;;;;13.88;8.88;;;;;;;;;;4991012;28;20446;-65
2021/11/28 05:33:02;;;;;;;15.70;8.65;;;;;;;;;;4974673;28;20086;-65
2021/11/28 05:35:29;;;;;;;11.30;7.88;;;;;;;;;;4974824;28;20051;-66
2021/11/28 05:37:55;;;;;;;13.20;9.38;;;;;;;;;;4974968;28;20046;-66
2021/11/28 05:40:22;;;;;;;12.23;8.43;;;;;;;;;;4974697;28;20051;-65
2021/11/28 05:42:51;;;;;;;13.65;8.15;;;;;;;;;;4974445;28;20051;-65
2021/11/28 05:45:22;;;;;;;11.10;8.07;;;;;;;;;;4974620;28;20051;-66
2021/11/28 05:47:49;;;;;;;12.00;8.77;;;;;;;;;;4974498;28;20450;-65
2021/11/28 05:50:17;;;;;;;14.82;9.07;;;;;;;;;;4974414;28;20469;-66
2021/11/28 05:52:44;;;;;;;12.30;8.38;;;;;;;;;;4974201;28;20059;-65
2021/11/28 05:55:11;;;;;;;12.85;8.63;;;;;;;;;;4974595;28;20088;-66
2021/11/28 05:57:38;;;;;;;12.77;8.98;;;;;;;;;;4974314;28;20050;-66
2021/11/28 06:00:06;;;;;;;11.80;8.05;;;;;;;;;;4974324;28;20051;-66
2021/11/28 06:02:33;;;;;;;12.90;8.50;;;;;;;;;;4973787;28;20387;-65
2021/11/28 06:05:00;;;;;;;12.30;8.05;;;;;;;;;;4974165;28;20516;-66
2021/11/28 06:07:26;;;;;;;10.80;7.30;;;;;;;;;;4974066;28;20101;-66
2021/11/28 06:09:53;;;;;;;12.57;8.13;;;;;;;;;;4974066;28;20138;-67
2021/11/28 06:12:20;;;;;;;11.93;7.35;;;;;;;;;;4974111;28;20105;-66
2021/11/28 06:14:46;;;;;;;12.70;7.30;;;;;;;;;;4984287;28;20050;-67
2021/11/28 06:17:13;;;;;;;10.27;7.38;;;;;;;;;;4993517;28;20559;-67
2021/11/28 06:19:39;;;;;;;11.20;7.78;;;;;;;;;;4993256;28;20128;-66
2021/11/28 06:22:08;;;;;;;12.05;7.90;;;;;;;;;;4993440;28;20055;-66
2021/11/28 06:24:38;;;;;;;12.00;7.00;;;;;;;;;;4987786;28;20053;-65
2021/11/28 06:27:05;;;;;;;10.23;7.68;;;;;;;;;;4973633;28;20085;-66
2021/11/28 06:29:32;;;;;;;11.73;7.60;;;;;;;;;;4973670;28;20055;-66
2021/11/28 06:31:59;;;;;;;14.23;8.02;;;;;;;;;;4973786;28;20106;-66
2021/11/28 06:34:26;;;;;;;11.98;7.97;;;;;;;;;;4973820;28;20107;-67
2021/11/28 06:36:54;;;;;;;12.82;8.30;;;;;;;;;;4973608;28;20051;-67
2021/11/28 06:39:21;;;;;;;11.52;7.80;;;;;;;;;;4976901;28;20050;-67
2021/11/28 06:41:48;;;;;;;12.88;6.95;;;;;;;;;;4973532;28;20465;-67
2021/11/28 06:44:15;;;;;;;10.60;7.22;;;;;;;;;;4973310;28;20058;-66
2021/11/28 06:46:41;;;;;;;11.57;7.43;;;;;;;;;;4973359;28;20102;-66
2021/11/28 06:49:08;;;;;;;11.75;7.55;;;;;;;;;;4973413;28;20125;-66
2021/11/28 06:51:35;;;;;;;12.70;8.10;;;;;;;;;;4973255;28;20054;-64
2021/11/28 06:54:01;;;;;;;12.27;8.05;;;;;;;;;;4973310;28;20097;-66
2021/11/28 06:56:28;;;;;;;14.18;8.50;;;;;;;;;;4972810;28;20101;-67
2021/11/28 06:58:54;;;;;;;14.25;8.80;;;;;;;;;;4973261;28;20047;-66
2021/11/28 07:01:21;;;;;;;15.13;9.73;;;;;;;;;;4973188;28;20046;-66
2021/11/28 07:03:48;;;;;;;15.40;9.88;;;;;;;;;;4972856;28;20082;-66
2021/11/28 07:06:14;;;;;;;16.02;9.18;;;;;;;;;;4980601;28;20058;-67
2021/11/28 07:08:41;;;;;;;18.13;9.82;;;;;;;;;;4972614;28;20055;-66
2021/11/28 07:11:08;;;;;;;15.00;9.50;;;;;;;;;;4973049;28;20046;-67
2021/11/28 07:13:34;;;;;;;13.82;8.95;;;;;;;;;;4972053;28;20109;-66
2021/11/28 07:16:01;;;;;;;16.08;9.48;;;;;;;;;;4976659;28;20081;-67
2021/11/28 07:18:28;;;;;;;14.65;8.48;;;;;;;;;;4973137;28;20465;-66
2021/11/28 07:20:55;;;;;;;13.50;9.43;;;;;;;;;;4973091;28;20137;-67
2021/11/28 07:23:22;;;;;;;12.13;8.45;;;;;;;;;;4972867;28;20046;-66
2021/11/28 07:25:49;;;;;;;14.70;8.77;;;;;;;;;;4974112;28;20055;-66
2021/11/28 07:28:15;;;;;;;10.82;8.18;;;;;;;;;;4972770;28;20078;-65
2021/11/28 07:30:42;;;;;;;14.23;7.90;;;;;;;;;;4972973;28;20094;-65
2021/11/28 07:33:09;;;;;;;12.57;8.68;;;;;;;;;;4972790;28;20067;-66
2021/11/28 07:35:36;;;;;;;10.82;7.32;;;;;;;;;;4972811;28;20055;-64
2021/11/28 07:38:02;;;;;;;12.48;8.95;;;;;;;;;;4972887;28;20074;-66
2021/11/28 07:40:29;;;;;;;9.23;7.20;;;;;;;;;;4972753;28;20477;-67
2021/11/28 07:42:56;;;;;;;17.13;9.32;;;;;;;;;;4972732;28;20054;-64
2021/11/28 07:45:22;;;;;;;11.63;8.45;;;;;;;;;;4972702;28;20101;-65
2021/11/28 07:47:49;;;;;;;14.50;8.88;;;;;;;;;;4972499;28;20054;-67
2021/11/28 07:50:16;;;;;;;12.50;8.73;;;;;;;;;;4972675;28;20469;-67
2021/11/28 07:52:42;;;;;;;12.73;7.38;;;;;;;;;;4972432;28;20086;-65
2021/11/28 07:55:09;;;;;;;12.05;7.85;;;;;;;;;;4981981;28;20461;-66
2021/11/28 07:57:36;;;;;;;11.75;8.18;;;;;;;;;;4991981;28;20109;-66
2021/11/28 08:00:06;;;;;;;14.30;8.00;;;;;;;;;;4992051;28;20046;-65
2021/11/28 08:02:35;;;;;;;12.30;8.02;;;;;;;;;;4991936;28;20425;-66
2021/11/28 08:05:03;;;;;;;10.32;7.20;;;;;;;;;;4984946;28;20050;-67
2021/11/28 08:07:29;;;;;;;10.45;7.40;;;;;;;;;;4972229;28;20055;-66
2021/11/28 08:09:56;;;;;;;12.02;7.75;;;;;;;;;;4972450;28;20053;-64
2021/11/28 08:12:24;;;;;;;11.02;7.47;;;;;;;;;;4972551;28;20102;-66
2021/11/28 08:14:51;;;;;;;8.38;6.78;;;;;;;;;;4972409;28;20113;-67
2021/11/28 08:17:18;;;;;;;8.65;6.05;;;;;;;;;;4972566;28;20130;-67
2021/11/28 08:19:44;;;;;;;10.57;6.20;;;;;;;;;;4972314;28;20113;-67
2021/11/28 08:22:11;;;;;;;8.90;6.38;;;;;;;;;;4972488;28;20059;-67
2021/11/28 08:24:38;;;;;;;7.97;5.90;;;;;;;;;;4977878;28;20420;-67
2021/11/28 08:27:05;;;;;;;8.02;6.07;;;;;;;;;;4994991;28;20047;-66
2021/11/28 08:29:32;;;;;;;8.93;5.28;;;;;;;;;;4995235;28;20124;-65
2021/11/28 08:31:59;;;;;;;8.05;6.25;;;;;;;;;;4995335;28;20054;-67
2021/11/28 08:34:26;;;;;;;7.55;5.82;;;;;;;;;;4993105;28;20077;-67
2021/11/28 08:36:53;;;;;;;8.77;5.68;;;;;;;;;;4975400;28;20050;-70
2021/11/28 08:39:19;;;;;;;9.65;6.07;;;;;;;;;;4975579;28;20109;-70
2021/11/28 08:41:46;;;;;;;9.70;6.70;;;;;;;;;;4975648;28;20055;-69
2021/11/28 08:44:13;;;;;;;8.60;6.20;;;;;;;;;;4975541;28;20568;-68
2021/11/28 08:46:40;;;;;;;8.43;5.93;;;;;;;;;;4975507;28;20062;-68
2021/11/28 08:49:07;;;;;;;9.20;5.95;;;;;;;;;;4975919;28;20046;-69
2021/11/28 08:51:35;;;;;;;9.00;5.90;;;;;;;;;;4958788;28;20047;-70
2021/11/28 08:54:02;;;;;;;7.43;6.43;;;;;;;;;;4965638;28;20047;-66
2021/11/28 08:56:29;;;;;;;8.45;5.88;;;;;;;;;;4967971;28;20051;-66
2021/11/28 08:58:55;;;;;;;9.18;6.20;;;;;;;;;;4962027;28;20051;-67
2021/11/28 09:01:22;;;;;;;8.65;6.40;;;;;;;;;;4961804;28;20050;-65
2021/11/28 09:03:50;;;;;;;8.45;6.53;;;;;;;;;;4961424;28;20058;-66
2021/11/28 09:06:17;;;;;;;8.50;6.20;;;;;;;;;;4961156;28;20047;-66
2021/11/28 09:08:44;;;;;;;12.40;5.93;;;;;;;;;;4959891;28;20061;-69
2021/11/28 09:11:11;;;;;;;8.27;6.63;;;;;;;;;;4968852;28;20072;-68
2021/11/28 09:13:38;;;;;;;8.00;6.20;;;;;;;;;;4959833;28;20486;-68
2021/11/28 09:16:08;;;;;;;10.52;5.82;;;;;;;;;;4960538;28;20418;-67
2021/11/28 09:18:42;;;;;;;9.43;6.45;;;;;;;;;;4959741;28;20049;-67
2021/11/28 09:21:11;;;;;;;8.77;6.22;;;;;;;;;;4960928;28;20537;-67
2021/11/28 09:26:24;;;;;;;8.05;5.60;;;;;;;;;;4964375;28;20054;-68
2021/11/28 09:28:51;;;;;;;9.13;6.82;;;;;;;;;;4960795;28;20256;-69
2021/11/28 09:31:18;;;;;;;9.02;6.03;;;;;;;;;;4966390;28;20081;-68
2021/11/28 09:33:45;;;;;;;10.82;6.60;;;;;;;;;;4964960;28;21223;-65
2021/11/28 09:36:12;;;;;;;9.10;6.57;;;;;;;;;;4961611;28;20082;-67
2021/11/28 09:38:39;;;;;;;10.10;6.00;;;;;;;;;;4963093;28;20460;-67
2021/11/28 09:41:08;;;;;;;10.65;6.40;;;;;;;;;;4960978;28;20055;-65
2021/11/28 09:43:36;;;;;;;9.05;6.30;;;;;;;;;;4961648;28;20047;-66
2021/11/28 09:46:04;;;;;;;11.98;6.63;;;;;;;;;;4967707;28;20050;-67
2021/11/28 09:48:36;;;;;;;13.50;6.90;;;;;;;;;;4963056;28;20134;-65
2021/11/28 09:51:04;;;;;;;12.60;8.00;;;;;;;;;;4961264;28;20106;-66
2021/11/28 09:53:41;;;;;;;10.48;6.80;;;;;;;;;;4963044;28;20074;-66
2021/11/28 09:56:08;;;;;;;8.48;5.90;;;;;;;;;;4965844;28;20051;-71
2021/11/28 09:58:35;;;;;;;8.55;5.85;;;;;;;;;;4959544;28;20048;-69
2021/11/28 10:01:02;;;;;;;9.40;6.50;;;;;;;;;;4962979;28;20101;-71
2021/11/28 10:03:29;;;;;;;8.45;5.68;;;;;;;;;;4969344;28;20400;-71
2021/11/28 10:05:57;;;;;;;9.50;6.57;;;;;;;;;;4965118;28;20109;-71
2021/11/28 10:08:26;;;;;;;9.25;5.97;;;;;;;;;;4967723;28;20307;-69
2021/11/28 10:11:23;;;;;;;9.15;6.95;;;;;;;;;;4967862;28;20139;-69
2021/11/28 10:13:53;;;;;;;10.32;7.22;;;;;;;;;;4965256;28;20081;-70
2021/11/28 10:16:20;;;;;;;8.45;6.53;;;;;;;;;;4968775;28;20059;-69
2021/11/28 10:18:47;;;;;;;13.90;9.27;;;;;;;;;;4961990;28;20158;-69
2021/11/28 10:21:13;;;;;;;10.63;7.45;;;;;;;;;;4966671;28;20461;-68
2021/11/28 10:24:06;;;;;;;13.10;8.13;;;;;;;;;;4959001;28;20101;-67
2021/11/28 10:26:34;;;;;;;16.70;9.63;;;;;;;;;;4964984;28;20130;-67
2021/11/28 10:29:13;;;;;;;15.52;9.60;;;;;;;;;;4960426;28;20504;-68
2021/11/28 10:31:47;;;;;;;13.48;8.93;;;;;;;;;;4962080;28;20419;-68
2021/11/28 10:34:18;;;;;;;15.00;9.68;;;;;;;;;;4962553;28;20050;-67
2021/11/28 10:36:46;;;;;;;15.45;9.25;;;;;;;;;;4961291;28;20047;-67
2021/11/28 10:39:18;;;;;;;14.88;8.10;;;;;;;;;;4959628;28;20047;-67
2021/11/28 10:41:56;;;;;;;16.23;8.60;;;;;;;;;;4960751;28;20051;-70
2021/11/28 10:44:25;;;;;;;12.88;7.93;;;;;;;;;;4961861;28;20145;-68
2021/11/28 10:46:55;;;;;;;15.18;8.10;;;;;;;;;;4960733;28;20126;-69
2021/11/28 10:49:24;;;;;;;16.23;9.10;;;;;;;;;;4962191;28;20055;-67
2021/11/28 10:51:54;;;;;;;17.92;10.80;;;;;;;;;;4965297;28;20046;-69
2021/11/28 10:54:36;;;;;;;13.70;8.73;;;;;;;;;;4960931;28;20457;-68
2021/11/28 10:57:06;;;;;;;14.52;8.52;;;;;;;;;;4961839;28;20043;-67
2021/11/28 10:59:34;;;;;;;14.27;8.30;;;;;;;;;;4958139;28;20044;-67
2021/11/28 11:02:01;;;;;;;13.95;8.15;;;;;;;;;;4962884;28;20447;-68
2021/11/28 11:04:29;;;;;;;13.23;8.23;;;;;;;;;;4957720;28;20073;-68
2021/11/28 11:07:13;;;;;;;14.18;8.55;;;;;;;;;;4960762;28;20047;-68
2021/11/28 11:09:44;;;;;;;14.00;7.75;;;;;;;;;;4963691;28;20482;-68
2021/11/28 11:12:38;;;;;;;11.48;6.75;;;;;;;;;;4964876;28;20654;-68
2021/11/28 11:15:05;;;;;;;;;;;;;;;;;;4965081;28;20098;-68
2021/11/28 11:17:31;;;;;;;8.32;5.30;;;;;;;;;;4958367;28;20306;-67
2021/11/28 11:19:58;;;;;;;6.63;4.82;;;;;;;;;;4958644;28;20506;-68
2021/11/28 11:22:30;;;;;;;6.55;5.25;;;;;;;;;;4968565;28;20110;-66
2021/11/28 11:25:03;;;;;;;7.82;5.43;;;;;;;;;;4963403;28;20067;-66
2021/11/28 11:27:33;;;;;;;8.05;5.32;;;;;;;;;;4966232;28;20105;-65
2021/11/28 11:30:04;;;;;;;8.98;4.93;;;;;;;;;;4958878;28;20466;-70
2021/11/28 11:32:44;;;;;;;6.95;5.28;;;;;;;;;;4958582;28;20055;-68
2021/11/28 11:35:24;;;;;;;8.05;5.22;;;;;;;;;;4961458;28;20511;-68
2021/11/28 11:37:53;;;;;;;8.27;5.85;;;;;;;;;;4965785;28;20101;-63
2021/11/28 11:40:21;;;;;;;10.10;5.65;;;;;;;;;;4963582;28;20046;-64
2021/11/28 11:42:49;;;;;;;8.25;6.10;;;;;;;;;;4962705;28;20051;-67
2021/11/28 11:45:17;;;;;;;10.35;6.88;;;;;;;;;;4959186;28;20047;-66
2021/11/28 11:47:44;;;;;;;9.52;7.55;;;;;;;;;;4959369;28;20106;-66
2021/11/28 11:50:16;;;;;;;10.45;7.43;;;;;;;;;;4958178;28;20138;-67
2021/11/28 11:52:43;;;;;;;9.02;6.53;;;;;;;;;;4960119;28;20055;-68
2021/11/28 11:55:22;;;;;;;10.07;7.07;;;;;;;;;;4958130;28;20051;-67
2021/11/28 11:57:55;;;;;;;15.25;7.47;;;;;;;;;;4958457;28;20061;-66
2021/11/28 12:00:43;;;;;;;11.50;7.18;;;;;;;;;;4960902;28;20047;-68
2021/11/28 12:03:13;;;;;;;10.07;7.30;;;;;;;;;;4951849;28;20058;-67
2021/11/28 12:05:40;;;;;;;7.55;5.93;;;;;;;;;;4963538;28;20053;-66
2021/11/28 12:08:13;;;;;;;7.82;6.00;;;;;;;;;;4962850;28;20517;-66
2021/11/28 12:10:41;;;;;;;7.47;6.45;;;;;;;;;;4965871;28;20078;-66
2021/11/28 12:13:31;;;;;;;9.45;6.20;;;;;;;;;;4964670;28;20070;-67
2021/11/28 12:16:03;;;;;;;7.88;6.20;;;;;;;;;;4945175;28;20051;-68
2021/11/28 12:18:33;;;;;;;8.48;6.43;;;;;;;;;;4962855;28;20050;-67
2021/11/28 12:21:09;;;;;;;10.23;7.03;;;;;;;;;;4961681;28;20089;-67
2021/11/28 12:23:59;;;;;;;8.18;5.80;;;;;;;;;;4961429;28;20051;-66
2021/11/28 12:26:26;;;;;;;10.48;6.70;;;;;;;;;;4964519;28;20073;-67
2021/11/28 12:29:13;;;;;;;7.97;5.63;;;;;;;;;;4962332;28;20105;-68
2021/11/28 12:31:51;;;;;;;10.27;5.38;;;;;;;;;;4961848;28;20138;-68
2021/11/28 12:34:25;;;;;;;10.88;6.32;;;;;;;;;;4963027;28;20094;-68
2021/11/28 12:36:55;;;;;;;9.27;5.82;;;;;;;;;;4965159;28;20502;-67
2021/11/28 12:39:23;;;;;;;9.45;6.60;;;;;;;;;;4966287;28;20101;-67
2021/11/28 12:41:56;;;;;;;8.93;6.45;;;;;;;;;;4961865;28;20143;-68
2021/11/28 12:44:23;;;;;;;7.82;5.68;;;;;;;;;;4966488;28;20050;-66
2021/11/28 12:46:52;;;;;;;7.82;5.38;;;;;;;;;;4963648;28;20105;-68
2021/11/28 12:50:06;;;;;;;8.15;5.95;;;;;;;;;;4961782;28;20054;-68
2021/11/28 12:52:40;;;;;;;7.78;5.32;;;;;;;;;;4931849;28;20110;-68
2021/11/28 12:55:09;;;;;;;9.25;5.65;;;;;;;;;;4970304;28;20050;-68
2021/11/28 12:57:42;;;;;;;9.95;5.43;;;;;;;;;;4962804;28;20055;-67
2021/11/28 13:00:19;;;;;;;7.45;5.18;;;;;;;;;;4963652;28;20043;-67
2021/11/28 13:02:48;;;;;;;6.32;5.20;;;;;;;;;;4969297;28;20055;-65
2021/11/28 13:05:30;;;;;;;8.65;5.78;;;;;;;;;;4964386;28;20055;-69
2021/11/28 13:08:04;;;;;;;8.63;6.13;;;;;;;;;;4962215;28;20051;-68
2021/11/28 13:10:56;;;;;;;7.03;5.40;;;;;;;;;;4962318;28;20079;-69
2021/11/28 13:13:26;;;;;;;8.07;5.53;;;;;;;;;;4964318;28;20426;-65
2021/11/28 13:15:58;;;;;;;6.43;5.32;;;;;;;;;;4962868;28;20055;-69
2021/11/28 13:18:29;;;;;;;7.00;4.60;;;;;;;;;;4969365;28;20054;-68
2021/11/28 13:21:02;;;;;;;7.97;5.35;;;;;;;;;;4960619;28;20495;-66
2021/11/28 13:23:29;;;;;;;9.90;4.93;;;;;;;;;;4959982;28;20050;-65
2021/11/28 13:25:57;;;;;;;8.55;5.60;;;;;;;;;;4961601;28;20051;-65
2021/11/28 13:28:43;;;;;;;5.40;4.55;;;;;;;;;;4960461;28;20576;-66
2021/11/28 13:31:16;;;;;;;5.95;5.00;;;;;;;;;;4963603;28;20102;-68
2021/11/28 13:34:03;;;;;;;8.45;5.32;;;;;;;;;;4962846;28;20121;-67
2021/11/28 13:36:40;;;;;;;7.43;5.10;;;;;;;;;;4961448;28;20051;-66
2021/11/28 13:39:13;;;;;;;5.97;5.20;;;;;;;;;;4957479;28;20106;-65
2021/11/28 13:41:40;;;;;;;6.60;5.40;;;;;;;;;;4959761;28;20501;-67
2021/11/28 13:44:10;;;;;;;7.57;4.90;;;;;;;;;;4964488;28;20175;-65
2021/11/28 13:46:45;;;;;;;8.43;5.45;;;;;;;;;;4964261;28;20054;-65
2021/11/28 13:49:14;;;;;;;7.45;5.00;;;;;;;;;;4959546;28;20051;-65
2021/11/28 13:51:45;;;;;;;6.93;6.00;;;;;;;;;;4959326;28;20511;-65
2021/11/28 13:54:16;;;;;;;8.82;5.65;;;;;;;;;;4962151;28;20140;-64
2021/11/28 13:56:49;;;;;;;9.93;6.50;;;;;;;;;;4959444;28;20051;-66
2021/11/28 13:59:21;;;;;;;6.65;5.55;;;;;;;;;;4975054;28;20047;-68
2021/11/28 14:02:08;;;;;;;8.77;6.30;;;;;;;;;;4964750;28;20165;-67
2021/11/28 14:04:35;;;;;;;10.30;6.13;;;;;;;;;;4958753;28;20051;-68
2021/11/28 14:07:03;;;;;;;8.00;6.95;;;;;;;;;;4957418;28;20051;-68
2021/11/28 14:09:29;;;;;;;9.50;7.35;;;;;;;;;;4965397;28;20034;-73
2021/11/28 14:11:56;;;;;;;10.20;5.95;;;;;;;;;;4965749;28;20047;-67
2021/11/28 14:14:24;;;;;;;8.50;6.03;;;;;;;;;;4959394;28;20474;-66
2021/11/28 14:16:55;;;;;;;9.35;6.65;;;;;;;;;;4960626;28;20055;-66
2021/11/28 14:19:28;;;;;;;8.40;6.82;;;;;;;;;;4959263;28;20066;-67
2021/11/28 14:21:55;;;;;;;11.18;6.15;;;;;;;;;;4962798;28;20042;-70
2021/11/28 14:24:38;;;;;;;;;;;;;;;;;;4957451;28;20074;-66
2021/11/28 14:27:13;;;;;;;9.68;6.32;;;;;;;;;;4955842;28;19922;-66
2021/11/28 14:29:39;;;;;;;7.32;5.82;;;;;;;;;;4957401;28;20134;-67
2021/11/28 14:32:06;;;;;;;8.48;6.15;;;;;;;;;;4964929;28;20109;-67
2021/11/28 14:34:34;;;;;;;7.60;5.30;;;;;;;;;;4957884;28;20469;-68
2021/11/28 14:37:15;;;;;;;8.05;5.82;;;;;;;;;;4964115;28;20059;-67
2021/11/28 14:39:42;;;;;;;8.77;6.05;;;;;;;;;;4958414;28;20427;-68
2021/11/28 14:42:14;;;;;;;8.88;6.05;;;;;;;;;;4958995;28;20050;-67
2021/11/28 14:44:49;;;;;;;9.30;6.63;;;;;;;;;;4958120;28;20051;-67
2021/11/28 14:47:29;;;;;;;7.60;5.97;;;;;;;;;;4962259;28;20062;-67
2021/11/28 14:50:00;;;;;;;12.10;6.55;;;;;;;;;;4958865;28;20465;-67
2021/11/28 14:52:35;;;;;;;9.23;6.75;;;;;;;;;;4964822;28;20113;-66